Time;durP1;ratioP1;P1;durP2;ratioP2;P2;SDS_P1;SDS_P2;PMS_P1;PMS_P2;Temp;Humidity;BMP_temperature;BMP_pressure;BME280_temperature;BME280_humidity;BME280_pressure;Samples;Min_cycle;Max_cycle;Signal;HPM_P1;HPM_P2
2022/03/07 00:13:26;;;;;;;;;;;102.80;2227.20;;;;;;6252034;22;19904;-91
2022/03/07 01:28:17;;;;;;;;;;;77.60;2227.20;;;;;;6123920;23;19933;-89
2022/03/07 01:30:43;;;;;;;;;;;77.60;2227.20;;;;;;6118427;23;19917;-91
2022/03/07 02:22:39;;;;;;;;;;;77.70;2227.20;;;;;;6226423;22;19938;-90
2022/03/07 02:25:10;;;;;;;;;;;77.40;2227.20;;;;;;6257889;22;19899;-90
2022/03/07 02:28:09;;;;;;;;;;;77.70;2227.20;;;;;;6134935;23;19896;-91
2022/03/07 02:31:17;;;;;;;;;;;77.60;2227.20;;;;;;6140083;23;19920;-92
2022/03/07 03:00:04;;;;;;;;;;;77.60;2227.20;;;;;;6241019;22;19924;-89
2022/03/07 03:02:29;;;;;;;;;;;77.60;2227.20;;;;;;6240575;22;20206;-90
2022/03/07 03:05:47;;;;;;;;;;;77.60;2227.20;;;;;;6242009;22;19932;-90
2022/03/07 03:33:21;;;;;;;;;;;77.60;2227.20;;;;;;6241032;22;19930;-91
2022/03/07 03:39:19;;;;;;;;;;;77.60;2227.20;;;;;;6261954;22;19933;-91
2022/03/07 03:42:15;;;;;;;;;;;77.60;2227.20;;;;;;6258719;22;20255;-91
2022/03/07 03:45:10;;;;;;;;;;;77.60;2227.20;;;;;;6065842;23;19905;-91
2022/03/07 03:51:12;;;;;;;;;;;77.60;2227.20;;;;;;6062738;23;19929;-91
2022/03/07 07:07:45;;;;;;;;;;;102.60;2227.20;;;;;;6236769;22;19922;-90
2022/03/07 11:03:50;;;;;;;;;;;307.30;1561.60;;;;;;6248166;22;19970;-92
2022/03/07 11:06:16;;;;;;;;;;;307.50;1536.00;;;;;;6222933;23;19908;-90
2022/03/07 11:08:43;;;;;;;;;;;307.20;1561.60;;;;;;6222949;23;19921;-88
2022/03/07 11:11:09;;;;;;;;;;;307.20;1536.00;;;;;;6223157;23;19903;-90
2022/03/07 11:13:34;;;;;;;;;;;307.40;1510.40;;;;;;6222987;23;20232;-88
2022/03/07 11:16:01;;;;;;;;;;;307.70;1510.40;;;;;;6223158;23;20250;-90
2022/03/07 11:18:28;;;;;;;;;;;308.00;1459.20;;;;;;6223165;23;19969;-87
2022/03/07 11:20:54;;;;;;;;;;;308.10;1433.60;;;;;;6222373;23;19899;-88
2022/03/07 11:25:58;;;;;;;;;;;307.20;1433.60;;;;;;6224096;22;19962;-96
2022/03/07 11:28:28;;;;;;;;;;;307.40;1459.20;;;;;;6199381;23;19911;-95
2022/03/07 11:30:54;;;;;;;;;;;307.30;1459.20;;;;;;6200284;23;19916;-94
2022/03/07 11:33:27;;;;;;;;;;;308.00;1484.80;;;;;;6195238;23;20309;-94
2022/03/07 11:35:53;;;;;;;;;;;282.50;1382.40;;;;;;6196234;23;20108;-91
2022/03/07 11:38:20;;;;;;;;;;;307.20;1433.60;;;;;;6193496;23;19908;-92
2022/03/07 11:40:55;;;;;;;;;;;307.40;1382.40;;;;;;6192791;23;19900;-94
2022/03/07 11:43:25;;;;;;;;;;;307.60;1382.40;;;;;;6192816;23;19900;-93
2022/03/07 11:45:52;;;;;;;;;;;282.50;1356.80;;;;;;6195374;23;19900;-94
2022/03/07 11:48:17;;;;;;;;;;;282.10;1382.40;;;;;;6194409;23;19900;-93
2022/03/07 11:53:19;;;;;;;;;;;281.60;1459.20;;;;;;6223785;22;19975;-91
2022/03/07 11:55:50;;;;;;;;;;;281.70;1484.80;;;;;;6221407;23;19965;-90
2022/03/07 11:58:26;;;;;;;;;;;281.60;1459.20;;;;;;6221374;23;20411;-92
2022/03/07 12:01:01;;;;;;;;;;;256.60;1433.60;;;;;;6221485;23;19907;-90
2022/03/07 12:03:32;;;;;;;;;;;256.30;1459.20;;;;;;6222171;23;19922;-92
2022/03/07 12:06:03;;;;;;;;;;;256.00;1510.40;;;;;;6222475;23;19949;-93
2022/03/07 12:08:30;;;;;;;;;;;256.00;1459.20;;;;;;6222457;23;19975;-88
2022/03/07 12:10:57;;;;;;;;;;;231.20;1459.20;;;;;;6222419;23;19907;-91
2022/03/07 12:13:23;;;;;;;;;;;231.10;1484.80;;;;;;6221497;23;19945;-90
2022/03/07 12:15:53;;;;;;;;;;;231.00;1510.40;;;;;;6221473;23;19899;-90
2022/03/07 12:18:19;;;;;;;;;;;231.00;1484.80;;;;;;6221165;23;19900;-89
2022/03/07 12:20:45;;;;;;;;;;;231.00;1459.20;;;;;;6221201;23;19899;-91
2022/03/07 12:23:11;;;;;;;;;;;230.90;1484.80;;;;;;6221087;23;19899;-92
2022/03/07 12:25:37;;;;;;;;;;;230.80;1536.00;;;;;;6221161;23;19907;-92
2022/03/07 12:28:03;;;;;;;;;;;230.70;1484.80;;;;;;6221088;23;19985;-90
2022/03/07 12:30:29;;;;;;;;;;;205.60;1484.80;;;;;;6220903;23;19908;-87
2022/03/07 12:32:55;;;;;;;;;;;230.70;1510.40;;;;;;6222103;23;19946;-92
2022/03/07 12:35:20;;;;;;;;;;;230.90;1536.00;;;;;;6223103;23;19904;-91
2022/03/07 12:37:46;;;;;;;;;;;256.60;1408.00;;;;;;6222541;23;19982;-93
2022/03/07 12:40:12;;;;;;;;;;;281.80;1382.40;;;;;;6222313;23;19899;-90
2022/03/07 12:42:40;;;;;;;;;;;;;;;;;;6222077;23;20284;-87
2022/03/07 12:45:06;;;;;;;;;;;;;;;;;;6221240;23;19927;-89
2022/03/07 12:47:35;;;;;;;;;;;358.50;1280.00;;;;;;6220417;23;19907;-90
2022/03/07 12:50:02;;;;;;;;;;;359.00;1203.20;;;;;;6220134;23;19907;-89
2022/03/07 12:52:32;;;;;;;;;;;358.50;1203.20;;;;;;6220340;23;19911;-87
2022/03/07 12:54:58;;;;;;;;;;;;;;;;;;6221857;23;19908;-89
2022/03/07 12:57:24;;;;;;;;;;;410.30;1100.80;;;;;;6221976;23;19899;-88
2022/03/07 13:00:01;;;;;;;;;;;461.10;1024.00;;;;;;6221905;23;20201;-88
2022/03/07 13:02:37;;;;;;;;;;;486.60;1152.00;;;;;;6222036;23;19899;-87
2022/03/07 13:05:05;;;;;;;;;;;512.00;921.60;;;;;;6221818;23;19906;-87
2022/03/07 13:07:30;;;;;;;;;;;486.40;947.20;;;;;;6221897;23;19900;-85
2022/03/07 13:10:04;;;;;;;;;;;461.20;1024.00;;;;;;6221827;23;20303;-87
2022/03/07 13:12:32;;;;;;;;;;;461.20;972.80;;;;;;6221706;23;19899;-87
2022/03/07 13:14:59;;;;;;;;;;;486.80;1075.20;;;;;;6221377;23;19904;-85
2022/03/07 13:17:25;;;;;;;;;;;538.00;844.80;;;;;;6221693;23;19923;-84
2022/03/07 13:19:51;;;;;;;;;;;563.90;844.80;;;;;;6221718;23;19900;-84
2022/03/07 13:22:17;;;;;;;;;;;537.60;896.00;;;;;;6221432;23;19986;-86
2022/03/07 13:24:49;;;;;;;;;;;487.30;844.80;;;;;;6220962;23;19907;-85
2022/03/07 13:27:16;;;;;;;;;;;461.50;896.00;;;;;;6221307;23;20317;-84
2022/03/07 13:29:43;;;;;;;;;;;436.10;896.00;;;;;;6221260;23;19919;-86
2022/03/07 13:32:09;;;;;;;;;;;;;;;;;;6221345;23;19899;-87
2022/03/07 13:34:46;;;;;;;;;;;384.20;998.40;;;;;;6221749;23;19899;-91
2022/03/07 13:37:13;;;;;;;;;;;358.70;1408.00;;;;;;6221445;23;19900;-89
2022/03/07 13:39:39;;;;;;;;;;;333.20;1152.00;;;;;;6221740;23;19966;-88
2022/03/07 13:42:06;;;;;;;;;;;307.70;1152.00;;;;;;6221546;23;19900;-89
2022/03/07 13:44:33;;;;;;;;;;;307.30;1203.20;;;;;;6221781;23;19899;-89
2022/03/07 13:46:59;;;;;;;;;;;;;;;;;;6221343;23;19907;-88
2022/03/07 13:49:28;;;;;;;;;;;281.60;1254.40;;;;;;6222041;23;19914;-87
2022/03/07 13:51:55;;;;;;;;;;;256.60;1254.40;;;;;;6221301;23;19899;-88
2022/03/07 13:54:21;;;;;;;;;;;256.00;1331.20;;;;;;6221266;23;19990;-89
2022/03/07 13:56:47;;;;;;;;;;;231.20;1740.80;;;;;;6219792;23;19900;-89
2022/03/07 13:59:13;;;;;;;;;;;231.10;1382.40;;;;;;6219611;23;19899;-92
2022/03/07 14:01:39;;;;;;;;;;;230.90;1408.00;;;;;;6219480;23;19900;-90
2022/03/07 14:04:10;;;;;;;;;;;231.00;1382.40;;;;;;6219483;23;19899;-92
2022/03/07 14:06:36;;;;;;;;;;;231.00;1382.40;;;;;;6243600;23;19900;-91
2022/03/07 14:09:01;;;;;;;;;;;231.00;1382.40;;;;;;6221245;23;19906;-91
2022/03/07 14:11:27;;;;;;;;;;;230.90;1382.40;;;;;;6221637;23;19907;-91
2022/03/07 14:13:56;;;;;;;;;;;230.80;1382.40;;;;;;6220934;23;19899;-89
2022/03/07 14:16:22;;;;;;;;;;;230.50;1356.80;;;;;;6221103;23;20219;-93
2022/03/07 14:18:48;;;;;;;;;;;230.40;1408.00;;;;;;6221377;23;19982;-91
2022/03/07 14:21:14;;;;;;;;;;;205.60;1433.60;;;;;;6221196;23;20308;-90
2022/03/07 14:23:39;;;;;;;;;;;205.40;1433.60;;;;;;6220586;23;19906;-91
2022/03/07 14:26:05;;;;;;;;;;;205.30;1433.60;;;;;;6221211;23;19903;-91
2022/03/07 14:28:32;;;;;;;;;;;205.10;1484.80;;;;;;6221001;23;19944;-90
2022/03/07 14:30:57;;;;;;;;;;;204.90;1484.80;;;;;;6221269;23;19951;-92
2022/03/07 14:33:24;;;;;;;;;;;204.80;1510.40;;;;;;6221510;23;20205;-91
2022/03/07 14:35:49;;;;;;;;;;;180.10;1536.00;;;;;;6222711;23;19899;-94
2022/03/07 14:38:15;;;;;;;;;;;180.10;1510.40;;;;;;6224402;23;19904;-91
2022/03/07 14:40:41;;;;;;;;;;;180.00;1510.40;;;;;;6224696;23;19899;-93
2022/03/07 14:43:06;;;;;;;;;;;179.90;1536.00;;;;;;6224567;23;19979;-93
2022/03/07 14:45:32;;;;;;;;;;;179.90;1536.00;;;;;;6224674;23;19946;-91
2022/03/07 14:47:58;;;;;;;;;;;179.70;1536.00;;;;;;6224064;23;19953;-90
2022/03/07 14:50:24;;;;;;;;;;;179.70;1561.60;;;;;;6224376;23;19908;-93
2022/03/07 14:52:50;;;;;;;;;;;179.50;1536.00;;;;;;6224034;23;19943;-92
2022/03/07 14:55:17;;;;;;;;;;;179.50;1561.60;;;;;;6224808;23;19991;-92
2022/03/07 14:57:43;;;;;;;;;;;179.50;1587.20;;;;;;6224715;23;19906;-92
2022/03/07 15:00:10;;;;;;;;;;;179.40;1587.20;;;;;;6224684;23;19931;-92
2022/03/07 15:02:36;;;;;;;;;;;;;;;;;;6224177;23;19931;-91
2022/03/07 15:05:02;;;;;;;;;;;179.20;1612.80;;;;;;6224825;23;20250;-91
2022/03/07 15:07:28;;;;;;;;;;;179.20;1612.80;;;;;;6224202;23;19903;-92
2022/03/07 15:09:53;;;;;;;;;;;179.20;2227.20;;;;;;6227792;23;19915;-92
2022/03/07 15:12:19;;;;;;;;;;;179.20;1612.80;;;;;;6225383;23;19900;-91
2022/03/07 15:14:50;;;;;;;;;;;179.30;1638.40;;;;;;6224941;23;19967;-92
